sensor_id;sensor_type;location;lat;lon;timestamp;P1;durP1;ratioP1;P2;durP2;ratioP2
22531;SDS011;11432;46.924;7.114;2023-02-22T00:00:22;17.73;;;9.13;;
22531;SDS011;11432;46.924;7.114;2023-02-22T00:02:55;13.27;;;8.88;;
22531;SDS011;11432;46.924;7.114;2023-02-22T00:05:24;14.80;;;8.88;;
22531;SDS011;11432;46.924;7.114;2023-02-22T00:07:51;13.43;;;9.23;;
22531;SDS011;11432;46.924;7.114;2023-02-22T00:12:48;12.25;;;8.98;;
22531;SDS011;11432;46.924;7.114;2023-02-22T00:15:16;15.50;;;9.02;;
22531;SDS011;11432;46.924;7.114;2023-02-22T00:17:43;14.77;;;9.20;;
22531;SDS011;11432;46.924;7.114;2023-02-22T00:20:09;13.05;;;8.95;;
22531;SDS011;11432;46.924;7.114;2023-02-22T00:22:45;13.30;;;9.07;;
22531;SDS011;11432;46.924;7.114;2023-02-22T00:25:15;12.57;;;9.40;;
22531;SDS011;11432;46.924;7.114;2023-02-22T00:27:41;16.73;;;8.98;;
22531;SDS011;11432;46.924;7.114;2023-02-22T00:30:07;15.88;;;9.32;;
22531;SDS011;11432;46.924;7.114;2023-02-22T00:32:37;14.55;;;9.15;;
22531;SDS011;11432;46.924;7.114;2023-02-22T00:35:02;18.73;;;10.13;;
22531;SDS011;11432;46.924;7.114;2023-02-22T00:39:59;13.52;;;9.13;;
22531;SDS011;11432;46.924;7.114;2023-02-22T00:42:25;15.45;;;9.48;;
22531;SDS011;11432;46.924;7.114;2023-02-22T00:44:51;14.98;;;9.50;;
22531;SDS011;11432;46.924;7.114;2023-02-22T00:47:16;14.23;;;9.70;;
22531;SDS011;11432;46.924;7.114;2023-02-22T00:49:42;12.30;;;9.10;;
22531;SDS011;11432;46.924;7.114;2023-02-22T00:52:07;15.57;;;9.18;;
22531;SDS011;11432;46.924;7.114;2023-02-22T00:54:33;13.93;;;8.73;;
22531;SDS011;11432;46.924;7.114;2023-02-22T00:57:00;12.55;;;9.23;;
22531;SDS011;11432;46.924;7.114;2023-02-22T00:59:27;15.35;;;9.05;;
22531;SDS011;11432;46.924;7.114;2023-02-22T01:01:55;13.65;;;9.18;;
22531;SDS011;11432;46.924;7.114;2023-02-22T01:04:20;13.25;;;8.88;;
22531;SDS011;11432;46.924;7.114;2023-02-22T01:06:46;12.13;;;8.95;;
22531;SDS011;11432;46.924;7.114;2023-02-22T01:09:11;13.52;;;8.85;;
22531;SDS011;11432;46.924;7.114;2023-02-22T01:11:37;12.95;;;8.75;;
22531;SDS011;11432;46.924;7.114;2023-02-22T01:14:02;12.40;;;8.75;;
22531;SDS011;11432;46.924;7.114;2023-02-22T01:16:28;13.00;;;8.70;;
22531;SDS011;11432;46.924;7.114;2023-02-22T01:18:54;14.88;;;8.60;;
22531;SDS011;11432;46.924;7.114;2023-02-22T01:21:19;14.25;;;8.82;;
22531;SDS011;11432;46.924;7.114;2023-02-22T01:23:45;13.30;;;8.80;;
22531;SDS011;11432;46.924;7.114;2023-02-22T01:26:11;13.75;;;8.93;;
22531;SDS011;11432;46.924;7.114;2023-02-22T01:28:36;13.07;;;8.50;;
22531;SDS011;11432;46.924;7.114;2023-02-22T01:31:03;14.23;;;8.52;;
22531;SDS011;11432;46.924;7.114;2023-02-22T01:33:29;11.60;;;7.82;;
22531;SDS011;11432;46.924;7.114;2023-02-22T01:35:55;12.45;;;8.10;;
22531;SDS011;11432;46.924;7.114;2023-02-22T01:38:21;12.82;;;8.00;;
22531;SDS011;11432;46.924;7.114;2023-02-22T01:40:48;11.73;;;8.07;;
22531;SDS011;11432;46.924;7.114;2023-02-22T01:45:50;12.63;;;8.55;;
22531;SDS011;11432;46.924;7.114;2023-02-22T01:48:29;11.88;;;7.65;;
22531;SDS011;11432;46.924;7.114;2023-02-22T01:53:34;13.60;;;8.00;;
22531;SDS011;11432;46.924;7.114;2023-02-22T01:56:05;18.10;;;8.82;;
22531;SDS011;11432;46.924;7.114;2023-02-22T01:58:32;12.57;;;7.80;;
22531;SDS011;11432;46.924;7.114;2023-02-22T02:01:00;14.63;;;7.35;;
22531;SDS011;11432;46.924;7.114;2023-02-22T02:03:29;17.60;;;7.85;;
22531;SDS011;11432;46.924;7.114;2023-02-22T02:05:59;18.98;;;8.25;;
22531;SDS011;11432;46.924;7.114;2023-02-22T02:08:29;15.43;;;7.72;;
22531;SDS011;11432;46.924;7.114;2023-02-22T02:11:07;11.77;;;7.38;;
22531;SDS011;11432;46.924;7.114;2023-02-22T02:13:33;14.52;;;8.50;;
22531;SDS011;11432;46.924;7.114;2023-02-22T02:16:00;11.15;;;7.80;;
22531;SDS011;11432;46.924;7.114;2023-02-22T02:18:25;10.95;;;7.78;;
22531;SDS011;11432;46.924;7.114;2023-02-22T02:42:33;10.57;;;7.32;;
22531;SDS011;11432;46.924;7.114;2023-02-22T02:45:10;14.48;;;7.97;;
22531;SDS011;11432;46.924;7.114;2023-02-22T02:47:45;10.35;;;7.20;;
22531;SDS011;11432;46.924;7.114;2023-02-22T02:50:17;9.82;;;7.45;;
22531;SDS011;11432;46.924;7.114;2023-02-22T02:52:50;12.10;;;7.03;;
22531;SDS011;11432;46.924;7.114;2023-02-22T02:55:18;11.45;;;7.70;;
22531;SDS011;11432;46.924;7.114;2023-02-22T02:57:44;10.45;;;7.05;;
22531;SDS011;11432;46.924;7.114;2023-02-22T03:00:10;12.27;;;6.93;;
22531;SDS011;11432;46.924;7.114;2023-02-22T03:02:52;13.50;;;7.85;;
22531;SDS011;11432;46.924;7.114;2023-02-22T03:08:21;9.60;;;7.13;;
22531;SDS011;11432;46.924;7.114;2023-02-22T03:21:54;11.98;;;7.10;;
22531;SDS011;11432;46.924;7.114;2023-02-22T03:24:32;12.10;;;7.63;;
22531;SDS011;11432;46.924;7.114;2023-02-22T03:27:13;9.32;;;6.53;;
22531;SDS011;11432;46.924;7.114;2023-02-22T03:29:47;11.07;;;7.30;;
22531;SDS011;11432;46.924;7.114;2023-02-22T03:32:16;12.97;;;7.27;;
22531;SDS011;11432;46.924;7.114;2023-02-22T03:34:51;9.38;;;6.55;;
22531;SDS011;11432;46.924;7.114;2023-02-22T03:37:23;10.45;;;7.38;;
22531;SDS011;11432;46.924;7.114;2023-02-22T03:39:53;13.18;;;7.38;;
22531;SDS011;11432;46.924;7.114;2023-02-22T03:42:25;8.68;;;6.45;;
22531;SDS011;11432;46.924;7.114;2023-02-22T03:44:54;9.90;;;6.50;;
22531;SDS011;11432;46.924;7.114;2023-02-22T03:47:28;11.45;;;6.95;;
22531;SDS011;11432;46.924;7.114;2023-02-22T03:52:59;9.45;;;6.22;;
22531;SDS011;11432;46.924;7.114;2023-02-22T03:55:25;12.30;;;6.65;;
22531;SDS011;11432;46.924;7.114;2023-02-22T03:57:56;10.77;;;6.50;;
22531;SDS011;11432;46.924;7.114;2023-02-22T04:00:25;12.45;;;6.63;;
22531;SDS011;11432;46.924;7.114;2023-02-22T04:02:52;10.30;;;6.80;;
22531;SDS011;11432;46.924;7.114;2023-02-22T04:05:18;9.85;;;6.53;;
22531;SDS011;11432;46.924;7.114;2023-02-22T04:07:44;11.73;;;6.50;;
22531;SDS011;11432;46.924;7.114;2023-02-22T04:10:11;8.80;;;6.40;;
22531;SDS011;11432;46.924;7.114;2023-02-22T04:12:38;10.57;;;6.43;;
22531;SDS011;11432;46.924;7.114;2023-02-22T04:15:04;10.85;;;7.03;;
22531;SDS011;11432;46.924;7.114;2023-02-22T04:17:31;12.15;;;7.05;;
22531;SDS011;11432;46.924;7.114;2023-02-22T04:19:57;12.77;;;6.93;;
22531;SDS011;11432;46.924;7.114;2023-02-22T04:22:22;10.45;;;6.40;;
22531;SDS011;11432;46.924;7.114;2023-02-22T04:24:48;8.00;;;5.95;;
22531;SDS011;11432;46.924;7.114;2023-02-22T04:27:14;8.95;;;6.40;;
22531;SDS011;11432;46.924;7.114;2023-02-22T04:29:40;8.35;;;6.22;;
22531;SDS011;11432;46.924;7.114;2023-02-22T04:32:06;10.38;;;6.43;;
22531;SDS011;11432;46.924;7.114;2023-02-22T04:34:32;9.40;;;6.15;;
22531;SDS011;11432;46.924;7.114;2023-02-22T04:36:58;7.75;;;6.13;;
22531;SDS011;11432;46.924;7.114;2023-02-22T04:39:23;10.05;;;6.22;;
22531;SDS011;11432;46.924;7.114;2023-02-22T04:41:49;10.57;;;6.75;;
22531;SDS011;11432;46.924;7.114;2023-02-22T04:44:15;10.20;;;6.55;;
22531;SDS011;11432;46.924;7.114;2023-02-22T04:46:41;8.48;;;6.18;;
22531;SDS011;11432;46.924;7.114;2023-02-22T04:49:07;10.63;;;6.38;;
22531;SDS011;11432;46.924;7.114;2023-02-22T04:51:32;12.32;;;6.60;;
22531;SDS011;11432;46.924;7.114;2023-02-22T04:53:59;9.75;;;6.50;;
22531;SDS011;11432;46.924;7.114;2023-02-22T04:56:25;10.00;;;6.80;;
22531;SDS011;11432;46.924;7.114;2023-02-22T04:58:51;9.35;;;6.30;;
22531;SDS011;11432;46.924;7.114;2023-02-22T05:01:16;12.32;;;6.55;;
22531;SDS011;11432;46.924;7.114;2023-02-22T05:03:42;8.35;;;6.00;;
22531;SDS011;11432;46.924;7.114;2023-02-22T05:06:08;9.60;;;6.60;;
22531;SDS011;11432;46.924;7.114;2023-02-22T05:08:36;8.73;;;6.25;;
22531;SDS011;11432;46.924;7.114;2023-02-22T05:11:03;9.93;;;6.68;;
22531;SDS011;11432;46.924;7.114;2023-02-22T05:13:30;9.60;;;6.28;;
22531;SDS011;11432;46.924;7.114;2023-02-22T05:15:55;8.27;;;6.35;;
22531;SDS011;11432;46.924;7.114;2023-02-22T05:18:21;12.48;;;7.28;;
22531;SDS011;11432;46.924;7.114;2023-02-22T05:20:47;10.75;;;7.03;;
22531;SDS011;11432;46.924;7.114;2023-02-22T05:23:13;8.60;;;6.35;;
22531;SDS011;11432;46.924;7.114;2023-02-22T05:25:39;11.02;;;6.90;;
22531;SDS011;11432;46.924;7.114;2023-02-22T05:28:09;11.25;;;6.43;;
22531;SDS011;11432;46.924;7.114;2023-02-22T05:30:36;12.55;;;6.50;;
22531;SDS011;11432;46.924;7.114;2023-02-22T05:33:06;8.00;;;6.25;;
22531;SDS011;11432;46.924;7.114;2023-02-22T05:35:32;9.98;;;6.43;;
22531;SDS011;11432;46.924;7.114;2023-02-22T05:37:58;10.18;;;6.40;;
22531;SDS011;11432;46.924;7.114;2023-02-22T05:40:27;11.00;;;6.50;;
22531;SDS011;11432;46.924;7.114;2023-02-22T05:42:53;10.43;;;7.10;;
22531;SDS011;11432;46.924;7.114;2023-02-22T05:45:21;22.25;;;10.70;;
22531;SDS011;11432;46.924;7.114;2023-02-22T05:47:48;27.20;;;12.80;;
22531;SDS011;11432;46.924;7.114;2023-02-22T05:50:14;26.65;;;13.27;;
22531;SDS011;11432;46.924;7.114;2023-02-22T05:52:42;23.73;;;11.77;;
22531;SDS011;11432;46.924;7.114;2023-02-22T05:55:08;22.27;;;11.98;;
22531;SDS011;11432;46.924;7.114;2023-02-22T05:57:36;15.68;;;9.20;;
22531;SDS011;11432;46.924;7.114;2023-02-22T06:00:03;14.05;;;8.10;;
22531;SDS011;11432;46.924;7.114;2023-02-22T06:02:31;10.68;;;6.47;;
22531;SDS011;11432;46.924;7.114;2023-02-22T06:04:57;10.48;;;6.50;;
22531;SDS011;11432;46.924;7.114;2023-02-22T06:07:22;11.88;;;6.60;;
22531;SDS011;11432;46.924;7.114;2023-02-22T06:09:51;10.63;;;6.47;;
22531;SDS011;11432;46.924;7.114;2023-02-22T06:12:17;11.32;;;6.57;;
22531;SDS011;11432;46.924;7.114;2023-02-22T06:14:43;10.13;;;6.43;;
22531;SDS011;11432;46.924;7.114;2023-02-22T06:17:12;9.05;;;5.97;;
22531;SDS011;11432;46.924;7.114;2023-02-22T06:19:39;8.30;;;5.78;;
22531;SDS011;11432;46.924;7.114;2023-02-22T06:22:05;9.52;;;6.03;;
22531;SDS011;11432;46.924;7.114;2023-02-22T06:24:32;9.10;;;5.95;;
22531;SDS011;11432;46.924;7.114;2023-02-22T06:26:59;13.88;;;7.05;;
22531;SDS011;11432;46.924;7.114;2023-02-22T06:29:26;13.85;;;6.80;;
22531;SDS011;11432;46.924;7.114;2023-02-22T06:31:53;9.52;;;6.35;;
22531;SDS011;11432;46.924;7.114;2023-02-22T06:34:19;10.98;;;6.80;;
22531;SDS011;11432;46.924;7.114;2023-02-22T06:36:48;9.85;;;5.90;;
22531;SDS011;11432;46.924;7.114;2023-02-22T06:39:14;7.43;;;5.55;;
22531;SDS011;11432;46.924;7.114;2023-02-22T06:41:43;17.05;;;8.30;;
22531;SDS011;11432;46.924;7.114;2023-02-22T06:44:11;18.90;;;9.52;;
22531;SDS011;11432;46.924;7.114;2023-02-22T06:46:37;21.55;;;10.38;;
22531;SDS011;11432;46.924;7.114;2023-02-22T06:49:03;20.27;;;10.20;;
22531;SDS011;11432;46.924;7.114;2023-02-22T06:51:29;18.42;;;10.63;;
22531;SDS011;11432;46.924;7.114;2023-02-22T06:53:59;13.27;;;7.90;;
22531;SDS011;11432;46.924;7.114;2023-02-22T06:56:25;8.00;;;5.72;;
22531;SDS011;11432;46.924;7.114;2023-02-22T07:03:23;8.27;;;5.28;;
22531;SDS011;11432;46.924;7.114;2023-02-22T07:05:49;8.55;;;5.88;;
22531;SDS011;11432;46.924;7.114;2023-02-22T07:08:14;11.02;;;5.90;;
22531;SDS011;11432;46.924;7.114;2023-02-22T07:10:40;8.20;;;5.20;;
22531;SDS011;11432;46.924;7.114;2023-02-22T07:13:06;12.48;;;6.20;;
22531;SDS011;11432;46.924;7.114;2023-02-22T07:15:33;8.07;;;5.55;;
22531;SDS011;11432;46.924;7.114;2023-02-22T07:17:59;11.40;;;6.38;;
22531;SDS011;11432;46.924;7.114;2023-02-22T07:20:26;9.50;;;5.40;;
22531;SDS011;11432;46.924;7.114;2023-02-22T07:22:53;11.80;;;6.15;;
22531;SDS011;11432;46.924;7.114;2023-02-22T07:25:19;13.13;;;6.43;;
22531;SDS011;11432;46.924;7.114;2023-02-22T07:27:46;11.32;;;5.78;;
22531;SDS011;11432;46.924;7.114;2023-02-22T07:30:16;12.15;;;5.38;;
22531;SDS011;11432;46.924;7.114;2023-02-22T07:32:45;14.10;;;5.80;;
22531;SDS011;11432;46.924;7.114;2023-02-22T07:35:19;10.55;;;6.15;;
22531;SDS011;11432;46.924;7.114;2023-02-22T07:37:50;10.50;;;6.30;;
22531;SDS011;11432;46.924;7.114;2023-02-22T07:40:16;11.15;;;6.43;;
22531;SDS011;11432;46.924;7.114;2023-02-22T07:42:59;10.57;;;5.70;;
22531;SDS011;11432;46.924;7.114;2023-02-22T07:45:32;8.27;;;5.90;;
22531;SDS011;11432;46.924;7.114;2023-02-22T07:47:59;11.25;;;6.57;;
22531;SDS011;11432;46.924;7.114;2023-02-22T07:50:26;10.15;;;5.90;;
22531;SDS011;11432;46.924;7.114;2023-02-22T07:52:55;13.45;;;6.85;;
22531;SDS011;11432;46.924;7.114;2023-02-22T07:55:23;12.32;;;6.50;;
22531;SDS011;11432;46.924;7.114;2023-02-22T08:00:30;10.55;;;6.38;;
22531;SDS011;11432;46.924;7.114;2023-02-22T08:02:58;8.68;;;6.20;;
22531;SDS011;11432;46.924;7.114;2023-02-22T08:05:28;12.45;;;6.68;;
22531;SDS011;11432;46.924;7.114;2023-02-22T08:07:54;13.23;;;7.55;;
22531;SDS011;11432;46.924;7.114;2023-02-22T08:10:21;11.50;;;7.60;;
22531;SDS011;11432;46.924;7.114;2023-02-22T08:12:48;10.77;;;7.25;;
22531;SDS011;11432;46.924;7.114;2023-02-22T08:15:15;13.43;;;7.05;;
22531;SDS011;11432;46.924;7.114;2023-02-22T08:17:43;12.80;;;7.57;;
22531;SDS011;11432;46.924;7.114;2023-02-22T08:20:08;11.82;;;8.18;;
22531;SDS011;11432;46.924;7.114;2023-02-22T08:22:34;13.20;;;8.13;;
22531;SDS011;11432;46.924;7.114;2023-02-22T08:25:00;12.52;;;7.90;;
22531;SDS011;11432;46.924;7.114;2023-02-22T08:27:26;13.10;;;7.80;;
22531;SDS011;11432;46.924;7.114;2023-02-22T08:29:54;11.38;;;7.55;;
22531;SDS011;11432;46.924;7.114;2023-02-22T08:32:21;15.85;;;8.25;;
22531;SDS011;11432;46.924;7.114;2023-02-22T08:34:47;13.52;;;7.35;;
22531;SDS011;11432;46.924;7.114;2023-02-22T08:37:13;17.27;;;7.95;;
22531;SDS011;11432;46.924;7.114;2023-02-22T08:39:40;13.18;;;7.47;;
22531;SDS011;11432;46.924;7.114;2023-02-22T08:42:05;13.95;;;8.77;;
22531;SDS011;11432;46.924;7.114;2023-02-22T08:44:33;13.40;;;7.80;;
22531;SDS011;11432;46.924;7.114;2023-02-22T08:46:59;11.80;;;7.38;;
22531;SDS011;11432;46.924;7.114;2023-02-22T08:49:25;14.13;;;8.48;;
22531;SDS011;11432;46.924;7.114;2023-02-22T08:51:50;11.80;;;7.65;;
22531;SDS011;11432;46.924;7.114;2023-02-22T08:54:16;14.32;;;8.10;;
22531;SDS011;11432;46.924;7.114;2023-02-22T08:56:43;11.10;;;7.40;;
22531;SDS011;11432;46.924;7.114;2023-02-22T08:59:08;12.85;;;7.80;;
22531;SDS011;11432;46.924;7.114;2023-02-22T09:01:34;13.68;;;7.68;;
22531;SDS011;11432;46.924;7.114;2023-02-22T09:04:01;10.75;;;7.03;;
22531;SDS011;11432;46.924;7.114;2023-02-22T09:06:27;14.50;;;7.50;;
22531;SDS011;11432;46.924;7.114;2023-02-22T09:08:53;14.20;;;7.30;;
22531;SDS011;11432;46.924;7.114;2023-02-22T09:11:19;12.13;;;8.13;;
22531;SDS011;11432;46.924;7.114;2023-02-22T09:13:44;14.55;;;9.10;;
22531;SDS011;11432;46.924;7.114;2023-02-22T09:16:10;17.48;;;8.93;;
22531;SDS011;11432;46.924;7.114;2023-02-22T09:18:36;16.02;;;9.65;;
22531;SDS011;11432;46.924;7.114;2023-02-22T09:21:02;19.88;;;10.55;;
22531;SDS011;11432;46.924;7.114;2023-02-22T09:23:28;14.80;;;9.57;;
22531;SDS011;11432;46.924;7.114;2023-02-22T09:25:54;20.27;;;12.48;;
22531;SDS011;11432;46.924;7.114;2023-02-22T09:28:19;19.73;;;11.35;;
22531;SDS011;11432;46.924;7.114;2023-02-22T09:30:45;21.75;;;11.75;;
22531;SDS011;11432;46.924;7.114;2023-02-22T09:33:13;19.35;;;11.73;;
22531;SDS011;11432;46.924;7.114;2023-02-22T09:35:41;19.13;;;11.67;;
22531;SDS011;11432;46.924;7.114;2023-02-22T09:38:10;20.42;;;11.15;;
22531;SDS011;11432;46.924;7.114;2023-02-22T09:40:39;16.92;;;11.27;;
22531;SDS011;11432;46.924;7.114;2023-02-22T09:51:21;17.30;;;10.30;;
22531;SDS011;11432;46.924;7.114;2023-02-22T09:53:52;19.17;;;11.90;;
22531;SDS011;11432;46.924;7.114;2023-02-22T09:56:23;20.73;;;11.32;;
22531;SDS011;11432;46.924;7.114;2023-02-22T09:58:50;19.42;;;11.48;;
22531;SDS011;11432;46.924;7.114;2023-02-22T10:09:29;22.83;;;12.57;;
22531;SDS011;11432;46.924;7.114;2023-02-22T10:12:04;20.55;;;12.90;;
22531;SDS011;11432;46.924;7.114;2023-02-22T10:14:46;19.25;;;12.52;;
22531;SDS011;11432;46.924;7.114;2023-02-22T10:20:03;18.83;;;12.13;;
22531;SDS011;11432;46.924;7.114;2023-02-22T10:25:27;18.98;;;13.20;;
22531;SDS011;11432;46.924;7.114;2023-02-22T10:30:54;19.20;;;12.10;;
22531;SDS011;11432;46.924;7.114;2023-02-22T10:35:55;20.42;;;12.60;;
22531;SDS011;11432;46.924;7.114;2023-02-22T10:38:25;20.00;;;12.20;;
22531;SDS011;11432;46.924;7.114;2023-02-22T10:40:56;23.38;;;12.45;;
22531;SDS011;11432;46.924;7.114;2023-02-22T10:43:26;19.00;;;12.25;;
22531;SDS011;11432;46.924;7.114;2023-02-22T10:45:53;23.13;;;13.57;;
22531;SDS011;11432;46.924;7.114;2023-02-22T10:48:22;21.88;;;12.10;;
22531;SDS011;11432;46.924;7.114;2023-02-22T10:50:58;21.23;;;12.23;;
22531;SDS011;11432;46.924;7.114;2023-02-22T10:53:26;20.67;;;12.43;;
22531;SDS011;11432;46.924;7.114;2023-02-22T10:56:05;21.02;;;11.88;;
22531;SDS011;11432;46.924;7.114;2023-02-22T11:01:27;19.83;;;12.82;;
22531;SDS011;11432;46.924;7.114;2023-02-22T11:04:15;20.48;;;13.32;;
22531;SDS011;11432;46.924;7.114;2023-02-22T11:06:46;20.60;;;13.20;;
22531;SDS011;11432;46.924;7.114;2023-02-22T11:09:52;20.48;;;12.65;;
22531;SDS011;11432;46.924;7.114;2023-02-22T11:12:30;23.08;;;12.32;;
22531;SDS011;11432;46.924;7.114;2023-02-22T11:15:18;20.88;;;12.77;;
22531;SDS011;11432;46.924;7.114;2023-02-22T11:17:54;21.30;;;12.43;;
22531;SDS011;11432;46.924;7.114;2023-02-22T11:20:26;20.83;;;12.57;;
22531;SDS011;11432;46.924;7.114;2023-02-22T11:22:58;22.00;;;11.52;;
22531;SDS011;11432;46.924;7.114;2023-02-22T11:25:27;21.42;;;12.23;;
22531;SDS011;11432;46.924;7.114;2023-02-22T11:28:08;18.67;;;12.18;;
22531;SDS011;11432;46.924;7.114;2023-02-22T11:30:38;20.00;;;12.80;;
22531;SDS011;11432;46.924;7.114;2023-02-22T11:33:20;20.25;;;12.57;;
22531;SDS011;11432;46.924;7.114;2023-02-22T11:38:23;19.73;;;11.90;;
22531;SDS011;11432;46.924;7.114;2023-02-22T11:43:47;20.80;;;12.48;;
22531;SDS011;11432;46.924;7.114;2023-02-22T11:46:17;20.55;;;13.15;;
22531;SDS011;11432;46.924;7.114;2023-02-22T11:59:37;20.23;;;12.25;;
22531;SDS011;11432;46.924;7.114;2023-02-22T12:02:46;20.65;;;11.75;;
22531;SDS011;11432;46.924;7.114;2023-02-22T12:05:44;19.15;;;11.10;;
22531;SDS011;11432;46.924;7.114;2023-02-22T12:11:11;20.67;;;10.38;;
22531;SDS011;11432;46.924;7.114;2023-02-22T12:16:29;21.80;;;12.48;;
22531;SDS011;11432;46.924;7.114;2023-02-22T12:19:14;24.52;;;12.35;;
22531;SDS011;11432;46.924;7.114;2023-02-22T12:21:48;20.60;;;12.30;;
22531;SDS011;11432;46.924;7.114;2023-02-22T12:24:24;20.50;;;11.73;;
22531;SDS011;11432;46.924;7.114;2023-02-22T12:26:56;20.77;;;12.70;;
22531;SDS011;11432;46.924;7.114;2023-02-22T12:29:36;20.50;;;13.05;;
22531;SDS011;11432;46.924;7.114;2023-02-22T12:35:01;21.33;;;11.82;;
22531;SDS011;11432;46.924;7.114;2023-02-22T12:40:32;20.08;;;12.32;;
22531;SDS011;11432;46.924;7.114;2023-02-22T12:46:05;18.42;;;11.48;;
22531;SDS011;11432;46.924;7.114;2023-02-22T12:54:19;19.42;;;12.50;;
22531;SDS011;11432;46.924;7.114;2023-02-22T13:02:14;20.65;;;11.55;;
22531;SDS011;11432;46.924;7.114;2023-02-22T13:04:46;18.17;;;10.95;;
22531;SDS011;11432;46.924;7.114;2023-02-22T13:13:09;20.02;;;11.60;;
22531;SDS011;11432;46.924;7.114;2023-02-22T13:18:34;15.98;;;10.68;;
22531;SDS011;11432;46.924;7.114;2023-02-22T13:23:46;18.40;;;10.30;;
22531;SDS011;11432;46.924;7.114;2023-02-22T13:26:34;14.80;;;10.20;;
22531;SDS011;11432;46.924;7.114;2023-02-22T13:40:45;15.77;;;9.38;;
22531;SDS011;11432;46.924;7.114;2023-02-22T13:46:28;17.42;;;8.48;;
22531;SDS011;11432;46.924;7.114;2023-02-22T13:56:47;18.17;;;8.85;;
22531;SDS011;11432;46.924;7.114;2023-02-22T13:59:34;14.98;;;10.00;;
22531;SDS011;11432;46.924;7.114;2023-02-22T14:02:02;16.60;;;8.75;;
22531;SDS011;11432;46.924;7.114;2023-02-22T14:07:02;17.08;;;8.95;;
22531;SDS011;11432;46.924;7.114;2023-02-22T14:09:54;13.90;;;8.57;;
22531;SDS011;11432;46.924;7.114;2023-02-22T14:17:39;16.55;;;8.95;;
22531;SDS011;11432;46.924;7.114;2023-02-22T14:22:40;14.55;;;8.98;;
22531;SDS011;11432;46.924;7.114;2023-02-22T14:25:29;15.73;;;9.13;;
22531;SDS011;11432;46.924;7.114;2023-02-22T14:27:56;14.23;;;8.07;;
22531;SDS011;11432;46.924;7.114;2023-02-22T14:30:24;15.27;;;8.75;;
22531;SDS011;11432;46.924;7.114;2023-02-22T14:32:52;16.23;;;9.48;;
22531;SDS011;11432;46.924;7.114;2023-02-22T14:35:18;15.75;;;7.95;;
22531;SDS011;11432;46.924;7.114;2023-02-22T14:37:47;16.33;;;9.23;;
22531;SDS011;11432;46.924;7.114;2023-02-22T14:40:20;13.15;;;7.15;;
22531;SDS011;11432;46.924;7.114;2023-02-22T14:45:31;13.93;;;8.80;;
22531;SDS011;11432;46.924;7.114;2023-02-22T14:55:46;12.13;;;7.43;;
22531;SDS011;11432;46.924;7.114;2023-02-22T14:58:21;11.38;;;7.57;;
22531;SDS011;11432;46.924;7.114;2023-02-22T15:00:53;15.23;;;8.02;;
22531;SDS011;11432;46.924;7.114;2023-02-22T15:05:46;16.08;;;8.07;;
22531;SDS011;11432;46.924;7.114;2023-02-22T15:08:14;12.82;;;8.05;;
22531;SDS011;11432;46.924;7.114;2023-02-22T15:13:16;11.20;;;7.60;;
22531;SDS011;11432;46.924;7.114;2023-02-22T15:15:46;17.05;;;8.77;;
22531;SDS011;11432;46.924;7.114;2023-02-22T15:18:18;16.83;;;7.97;;
22531;SDS011;11432;46.924;7.114;2023-02-22T15:20:51;11.98;;;8.10;;
22531;SDS011;11432;46.924;7.114;2023-02-22T15:23:25;15.73;;;9.20;;
22531;SDS011;11432;46.924;7.114;2023-02-22T15:25:54;15.35;;;9.05;;
22531;SDS011;11432;46.924;7.114;2023-02-22T15:28:20;13.25;;;8.48;;
22531;SDS011;11432;46.924;7.114;2023-02-22T15:30:48;14.55;;;8.20;;
22531;SDS011;11432;46.924;7.114;2023-02-22T15:33:15;14.85;;;8.82;;
22531;SDS011;11432;46.924;7.114;2023-02-22T15:35:52;16.20;;;8.68;;
22531;SDS011;11432;46.924;7.114;2023-02-22T15:38:19;15.23;;;9.32;;
22531;SDS011;11432;46.924;7.114;2023-02-22T15:41:00;13.38;;;8.82;;
22531;SDS011;11432;46.924;7.114;2023-02-22T15:43:28;16.60;;;8.80;;
22531;SDS011;11432;46.924;7.114;2023-02-22T15:45:56;18.38;;;8.73;;
22531;SDS011;11432;46.924;7.114;2023-02-22T15:48:22;16.63;;;8.57;;
22531;SDS011;11432;46.924;7.114;2023-02-22T15:50:57;12.27;;;8.40;;
22531;SDS011;11432;46.924;7.114;2023-02-22T15:53:38;14.65;;;8.82;;
22531;SDS011;11432;46.924;7.114;2023-02-22T15:56:08;14.98;;;8.93;;
22531;SDS011;11432;46.924;7.114;2023-02-22T15:58:38;15.20;;;8.60;;
22531;SDS011;11432;46.924;7.114;2023-02-22T16:01:05;13.48;;;8.13;;
22531;SDS011;11432;46.924;7.114;2023-02-22T16:03:39;13.65;;;7.72;;
22531;SDS011;11432;46.924;7.114;2023-02-22T16:06:22;16.55;;;8.05;;
22531;SDS011;11432;46.924;7.114;2023-02-22T16:08:49;14.30;;;8.63;;
22531;SDS011;11432;46.924;7.114;2023-02-22T16:11:23;13.80;;;7.28;;
22531;SDS011;11432;46.924;7.114;2023-02-22T16:14:02;12.57;;;8.15;;
22531;SDS011;11432;46.924;7.114;2023-02-22T16:16:39;16.05;;;8.38;;
22531;SDS011;11432;46.924;7.114;2023-02-22T16:27:47;15.93;;;8.77;;
22531;SDS011;11432;46.924;7.114;2023-02-22T16:32:46;14.13;;;8.70;;
22531;SDS011;11432;46.924;7.114;2023-02-22T16:35:13;13.27;;;7.78;;
22531;SDS011;11432;46.924;7.114;2023-02-22T16:37:51;11.98;;;7.97;;
22531;SDS011;11432;46.924;7.114;2023-02-22T16:42:57;13.18;;;7.85;;
22531;SDS011;11432;46.924;7.114;2023-02-22T16:45:24;16.45;;;9.10;;
22531;SDS011;11432;46.924;7.114;2023-02-22T16:47:49;16.10;;;7.93;;
22531;SDS011;11432;46.924;7.114;2023-02-22T16:50:17;14.35;;;8.00;;
22531;SDS011;11432;46.924;7.114;2023-02-22T16:52:44;17.98;;;7.97;;
22531;SDS011;11432;46.924;7.114;2023-02-22T16:55:14;13.50;;;8.25;;
22531;SDS011;11432;46.924;7.114;2023-02-22T16:57:44;16.90;;;8.45;;
22531;SDS011;11432;46.924;7.114;2023-02-22T17:00:14;14.77;;;8.05;;
22531;SDS011;11432;46.924;7.114;2023-02-22T17:02:54;14.60;;;8.27;;
22531;SDS011;11432;46.924;7.114;2023-02-22T17:05:23;12.82;;;7.80;;
22531;SDS011;11432;46.924;7.114;2023-02-22T17:07:49;13.32;;;8.77;;
22531;SDS011;11432;46.924;7.114;2023-02-22T17:10:15;15.05;;;8.55;;
22531;SDS011;11432;46.924;7.114;2023-02-22T17:12:43;14.55;;;8.30;;
22531;SDS011;11432;46.924;7.114;2023-02-22T17:15:24;14.82;;;8.23;;
22531;SDS011;11432;46.924;7.114;2023-02-22T17:17:52;16.17;;;8.18;;
22531;SDS011;11432;46.924;7.114;2023-02-22T17:20:19;12.93;;;8.57;;
22531;SDS011;11432;46.924;7.114;2023-02-22T17:22:58;12.90;;;7.82;;
22531;SDS011;11432;46.924;7.114;2023-02-22T17:25:31;16.13;;;9.02;;
22531;SDS011;11432;46.924;7.114;2023-02-22T17:28:04;15.25;;;8.88;;
22531;SDS011;11432;46.924;7.114;2023-02-22T17:30:30;12.32;;;8.48;;
22531;SDS011;11432;46.924;7.114;2023-02-22T17:32:57;15.13;;;8.73;;
22531;SDS011;11432;46.924;7.114;2023-02-22T17:35:31;12.68;;;8.10;;
22531;SDS011;11432;46.924;7.114;2023-02-22T17:37:59;13.23;;;8.48;;
22531;SDS011;11432;46.924;7.114;2023-02-22T17:40:28;12.38;;;8.88;;
22531;SDS011;11432;46.924;7.114;2023-02-22T17:42:54;13.75;;;8.43;;
22531;SDS011;11432;46.924;7.114;2023-02-22T17:45:22;13.65;;;8.75;;
22531;SDS011;11432;46.924;7.114;2023-02-22T17:47:48;13.80;;;8.57;;
22531;SDS011;11432;46.924;7.114;2023-02-22T17:50:15;15.75;;;8.85;;
22531;SDS011;11432;46.924;7.114;2023-02-22T17:52:42;13.35;;;8.85;;
22531;SDS011;11432;46.924;7.114;2023-02-22T17:55:08;13.88;;;8.30;;
22531;SDS011;11432;46.924;7.114;2023-02-22T17:57:34;14.50;;;8.48;;
22531;SDS011;11432;46.924;7.114;2023-02-22T18:00:02;13.60;;;8.23;;
22531;SDS011;11432;46.924;7.114;2023-02-22T18:02:39;12.35;;;8.57;;
22531;SDS011;11432;46.924;7.114;2023-02-22T18:05:06;11.77;;;8.45;;
22531;SDS011;11432;46.924;7.114;2023-02-22T18:07:32;13.82;;;8.38;;